createdAt,value
2023-08-08T00:00:14.387Z,1.80
2023-08-08T00:02:42.267Z,2.05
2023-08-08T00:05:11.026Z,1.77
2023-08-08T00:07:39.977Z,1.88
2023-08-08T00:10:09.294Z,1.85
2023-08-08T00:12:36.928Z,1.92
2023-08-08T00:15:05.037Z,1.92
2023-08-08T00:17:32.658Z,1.92
2023-08-08T00:20:00.514Z,2.20
2023-08-08T00:22:28.136Z,1.83
2023-08-08T00:24:57.095Z,1.60
2023-08-08T00:27:24.840Z,1.90
2023-08-08T00:29:54.220Z,1.92
2023-08-08T00:32:21.868Z,2.00
2023-08-08T00:34:49.461Z,2.10
2023-08-08T00:37:17.148Z,2.13
2023-08-08T00:39:47.084Z,1.95
2023-08-08T00:42:16.082Z,2.33
2023-08-08T00:44:43.660Z,2.28
2023-08-08T00:47:11.988Z,2.10
2023-08-08T00:49:40.112Z,1.85
2023-08-08T00:52:09.534Z,1.80
2023-08-08T00:54:37.276Z,2.17
2023-08-08T00:57:05.807Z,1.90
2023-08-08T00:59:35.288Z,2.15
2023-08-08T01:02:03.123Z,2.00
2023-08-08T01:04:30.937Z,2.20
2023-08-08T01:07:06.346Z,1.95
2023-08-08T01:09:38.426Z,1.90
2023-08-08T01:12:08.122Z,2.50
2023-08-08T01:14:37.995Z,2.35
2023-08-08T01:17:06.544Z,2.10
2023-08-08T01:19:35.645Z,2.30
2023-08-08T01:22:06.326Z,2.00
2023-08-08T01:24:38.198Z,2.15
2023-08-08T01:27:07.487Z,2.50
2023-08-08T01:29:35.262Z,2.53
2023-08-08T01:32:03.117Z,2.28
2023-08-08T01:34:31.166Z,2.40
2023-08-08T01:37:04.948Z,2.55
2023-08-08T01:39:36.018Z,2.33
2023-08-08T01:42:04.669Z,2.78
2023-08-08T01:44:33.734Z,2.42
2023-08-08T01:47:01.464Z,2.33
2023-08-08T01:49:29.116Z,2.70
2023-08-08T01:51:57.139Z,2.30
2023-08-08T01:54:25.003Z,2.47
2023-08-08T01:56:53.964Z,2.60
2023-08-08T01:59:21.554Z,2.25
2023-08-08T02:01:49.236Z,2.40
2023-08-08T02:04:16.997Z,2.35
2023-08-08T02:06:44.616Z,2.63
2023-08-08T02:09:12.403Z,2.38
2023-08-08T02:11:40.396Z,2.50
2023-08-08T02:14:09.557Z,2.90
2023-08-08T02:16:37.219Z,2.67
2023-08-08T02:19:04.834Z,2.20
2023-08-08T02:21:32.512Z,2.55
2023-08-08T02:24:00.153Z,2.13
2023-08-08T02:26:27.898Z,2.65
2023-08-08T02:28:55.519Z,2.13
2023-08-08T02:31:24.485Z,2.33
2023-08-08T02:33:52.303Z,2.20
2023-08-08T02:36:20.788Z,2.55
2023-08-08T02:38:48.485Z,2.25
2023-08-08T02:41:16.076Z,2.20
2023-08-08T02:43:43.834Z,1.95
2023-08-08T02:46:11.547Z,2.30
2023-08-08T02:48:40.525Z,2.00
2023-08-08T02:51:08.129Z,2.25
2023-08-08T02:53:35.745Z,2.30
2023-08-08T02:56:03.491Z,2.38
2023-08-08T02:58:31.063Z,2.50
2023-08-08T03:00:58.769Z,2.38
2023-08-08T03:03:26.460Z,2.45
2023-08-08T03:05:55.404Z,2.38
2023-08-08T03:08:23.139Z,2.20
2023-08-08T03:10:51.554Z,2.50
2023-08-08T03:13:21.027Z,2.42
2023-08-08T03:15:48.666Z,2.47
2023-08-08T03:18:16.322Z,2.30
2023-08-08T03:20:43.972Z,2.80
2023-08-08T03:23:12.963Z,2.70
2023-08-08T03:25:40.561Z,2.42
2023-08-08T03:28:08.153Z,2.40
2023-08-08T03:30:38.424Z,2.42
2023-08-08T03:33:06.893Z,2.13
2023-08-08T03:35:34.541Z,2.47
2023-08-08T03:38:02.180Z,2.75
2023-08-08T03:40:31.992Z,2.63
2023-08-08T03:42:59.677Z,2.75
2023-08-08T03:45:27.288Z,2.78
2023-08-08T03:47:54.968Z,2.30
2023-08-08T03:50:22.690Z,3.30
2023-08-08T03:52:50.503Z,2.85
2023-08-08T03:55:18.126Z,2.53
2023-08-08T03:57:47.058Z,3.67
2023-08-08T04:00:15.100Z,3.58
2023-08-08T04:02:42.784Z,3.00
2023-08-08T04:05:11.032Z,3.00
2023-08-08T04:07:38.634Z,3.40
2023-08-08T04:10:07.633Z,2.88
2023-08-08T04:12:35.262Z,3.08
2023-08-08T04:15:04.404Z,3.90
2023-08-08T04:17:32.062Z,3.38
2023-08-08T04:19:59.722Z,3.30
2023-08-08T04:22:27.383Z,3.13
2023-08-08T04:24:54.977Z,3.15
2023-08-08T04:27:22.621Z,3.15
2023-08-08T04:29:50.353Z,3.15
2023-08-08T04:32:19.340Z,3.30
2023-08-08T04:34:46.941Z,3.03
2023-08-08T04:37:14.530Z,2.75
2023-08-08T04:39:42.228Z,2.75
2023-08-08T04:42:09.878Z,3.53
2023-08-08T04:44:39.721Z,3.05
2023-08-08T04:47:08.466Z,3.00
2023-08-08T04:49:37.917Z,3.35
2023-08-08T04:52:06.397Z,2.83
2023-08-08T04:54:34.025Z,3.20
2023-08-08T04:57:01.667Z,3.30
2023-08-08T04:59:29.346Z,2.80
2023-08-08T05:01:57.012Z,3.13
2023-08-08T05:04:24.752Z,3.05
2023-08-08T05:06:53.794Z,2.63
2023-08-08T05:09:21.806Z,2.70
2023-08-08T05:11:49.676Z,2.47
2023-08-08T05:14:17.325Z,2.33
2023-08-08T05:16:45.054Z,2.83
2023-08-08T05:19:12.711Z,2.60
2023-08-08T05:21:40.329Z,2.40
2023-08-08T05:24:09.582Z,2.50
2023-08-08T05:26:37.179Z,2.28
2023-08-08T05:29:04.854Z,2.15
2023-08-08T05:31:32.517Z,2.22
2023-08-08T05:34:00.130Z,2.30
2023-08-08T05:36:27.739Z,2.40
2023-08-08T05:38:55.373Z,2.20
2023-08-08T05:41:24.469Z,2.22
2023-08-08T05:43:52.702Z,2.55
2023-08-08T05:46:20.379Z,2.30
2023-08-08T05:48:48.780Z,2.22
2023-08-08T05:51:16.519Z,2.58
2023-08-08T05:53:44.126Z,2.40
2023-08-08T05:56:11.855Z,1.98
2023-08-08T05:58:40.801Z,2.03
2023-08-08T06:01:10.752Z,1.90
2023-08-08T06:03:39.224Z,1.85
2023-08-08T06:06:07.387Z,2.17
2023-08-08T06:08:35.110Z,2.05
2023-08-08T06:11:03.162Z,1.90
2023-08-08T06:13:30.851Z,1.92
2023-08-08T06:16:02.210Z,2.28
2023-08-08T06:18:29.854Z,1.85
2023-08-08T06:20:57.459Z,2.40
2023-08-08T06:23:25.059Z,2.63
2023-08-08T06:25:52.676Z,2.40
2023-08-08T06:28:20.359Z,2.30
2023-08-08T06:30:47.949Z,2.72
2023-08-08T06:33:16.932Z,2.35
2023-08-08T06:35:44.647Z,2.65
2023-08-08T06:38:12.221Z,2.75
2023-08-08T06:40:40.092Z,2.85
2023-08-08T06:43:07.693Z,2.58
2023-08-08T06:45:35.342Z,2.65
2023-08-08T06:48:03.740Z,2.53
2023-08-08T06:50:32.813Z,2.60
2023-08-08T06:53:00.585Z,2.30
2023-08-08T06:55:28.337Z,3.17
2023-08-08T06:57:55.958Z,2.92
2023-08-08T07:00:23.820Z,2.95
2023-08-08T07:02:51.744Z,3.10
2023-08-08T07:05:19.565Z,2.63
2023-08-08T07:07:48.538Z,2.67
2023-08-08T07:10:16.971Z,2.95
2023-08-08T07:12:44.605Z,2.80
2023-08-08T07:15:12.871Z,3.28
2023-08-08T07:17:40.600Z,2.25
2023-08-08T07:20:09.862Z,3.03
2023-08-08T07:22:39.261Z,2.83
2023-08-08T07:25:09.366Z,2.10
2023-08-08T07:27:37.036Z,2.05
2023-08-08T07:30:05.283Z,1.95
2023-08-08T07:32:33.776Z,2.85
2023-08-08T07:35:04.034Z,2.70
2023-08-08T07:37:31.739Z,2.97
2023-08-08T07:39:59.371Z,2.65
2023-08-08T07:42:28.491Z,2.58
2023-08-08T07:44:56.134Z,2.60
2023-08-08T07:47:23.860Z,2.25
2023-08-08T07:49:51.514Z,2.20
2023-08-08T07:52:19.129Z,2.28
2023-08-08T07:54:46.714Z,2.58
2023-08-08T07:57:14.624Z,2.22
2023-08-08T07:59:43.560Z,2.33
2023-08-08T08:02:11.244Z,1.98
2023-08-08T08:04:38.877Z,2.40
2023-08-08T08:07:06.869Z,2.70
2023-08-08T08:09:34.477Z,2.60
2023-08-08T08:12:02.345Z,2.65
2023-08-08T08:14:30.202Z,2.33
2023-08-08T08:16:59.331Z,2.47
2023-08-08T08:19:26.958Z,2.17
2023-08-08T08:21:54.614Z,2.63
2023-08-08T08:24:22.252Z,1.95
2023-08-08T08:26:49.841Z,2.40
2023-08-08T08:29:17.941Z,2.00
2023-08-08T08:31:46.645Z,2.38
2023-08-08T08:34:15.613Z,1.80
2023-08-08T08:36:43.238Z,2.25
2023-08-08T08:39:10.921Z,2.13
2023-08-08T08:41:38.841Z,1.73
2023-08-08T08:44:07.562Z,2.17
2023-08-08T08:46:38.636Z,2.30
2023-08-08T08:49:09.622Z,1.98
2023-08-08T08:51:38.988Z,2.30
2023-08-08T08:54:07.601Z,2.30
2023-08-08T08:56:35.576Z,2.10
2023-08-08T08:59:03.995Z,2.30
2023-08-08T09:01:31.856Z,2.30
2023-08-08T09:03:59.988Z,2.22
2023-08-08T09:06:29.393Z,2.13
2023-08-08T09:09:07.387Z,2.00
2023-08-08T09:11:44.811Z,2.10
2023-08-08T09:14:18.733Z,2.17
2023-08-08T09:16:48.035Z,2.00
2023-08-08T09:19:15.842Z,2.05
2023-08-08T09:21:43.723Z,1.65
2023-08-08T09:24:12.884Z,1.63
2023-08-08T09:26:41.623Z,1.90
2023-08-08T09:29:10.548Z,1.80
2023-08-08T09:31:38.252Z,1.73
2023-08-08T09:34:07.117Z,1.67
2023-08-08T09:36:36.146Z,1.60
2023-08-08T09:39:04.490Z,1.83
2023-08-08T09:41:33.764Z,1.42
2023-08-08T09:44:01.962Z,1.33
2023-08-08T09:46:31.992Z,1.55
2023-08-08T09:49:01.191Z,1.60
2023-08-08T09:51:29.099Z,1.10
2023-08-08T09:53:58.192Z,1.38
2023-08-08T09:56:26.465Z,1.48
2023-08-08T09:58:55.685Z,1.23
2023-08-08T10:01:23.881Z,2.00
2023-08-08T10:03:53.932Z,1.30
2023-08-08T10:06:21.644Z,1.85
2023-08-08T10:08:49.525Z,1.42
2023-08-08T10:11:17.644Z,1.40
2023-08-08T10:13:50.086Z,1.33
2023-08-08T10:18:47.330Z,1.63
2023-08-08T10:21:15.332Z,1.55
2023-08-08T10:23:42.970Z,1.95
2023-08-08T10:26:21.105Z,1.63
2023-08-08T10:28:57.330Z,1.70
2023-08-08T10:31:29.424Z,2.10
2023-08-08T10:34:04.396Z,2.20
2023-08-08T10:36:45.933Z,2.15
2023-08-08T10:39:18.006Z,2.10
2023-08-08T10:41:48.616Z,2.63
2023-08-08T10:44:24.146Z,2.35
2023-08-08T10:46:57.667Z,2.20
2023-08-08T10:49:25.741Z,2.03
2023-08-08T10:51:53.495Z,2.38
2023-08-08T10:54:23.679Z,2.38
2023-08-08T10:56:53.004Z,2.13
2023-08-08T10:59:24.809Z,2.50
2023-08-08T11:01:54.931Z,2.05
2023-08-08T11:04:24.321Z,1.98
2023-08-08T11:06:55.111Z,1.60
2023-08-08T11:09:22.927Z,2.10
2023-08-08T11:11:51.434Z,1.70
2023-08-08T11:14:20.107Z,2.00
2023-08-08T11:16:49.609Z,2.38
2023-08-08T11:19:20.204Z,2.38
2023-08-08T11:21:49.691Z,1.90
2023-08-08T11:24:18.010Z,2.20
2023-08-08T11:26:48.615Z,1.75
2023-08-08T11:29:16.913Z,2.25
2023-08-08T11:31:44.572Z,1.98
2023-08-08T11:34:13.752Z,1.40
2023-08-08T11:36:42.928Z,2.13
2023-08-08T11:39:11.104Z,2.15
2023-08-08T11:41:39.329Z,1.70
2023-08-08T11:44:08.336Z,1.80
2023-08-08T11:46:36.947Z,1.83
2023-08-08T11:49:07.320Z,1.70
2023-08-08T11:51:35.593Z,2.22
2023-08-08T11:54:05.965Z,1.92
2023-08-08T11:56:35.848Z,1.70
2023-08-08T11:59:04.389Z,2.03
2023-08-08T12:01:33.714Z,1.90
2023-08-08T12:04:07.231Z,2.03
2023-08-08T12:06:35.119Z,1.95
2023-08-08T12:09:04.809Z,1.48
2023-08-08T12:11:33.968Z,2.03
2023-08-08T12:14:03.049Z,1.73
2023-08-08T12:16:33.836Z,1.65
2023-08-08T12:19:03.853Z,1.77
2023-08-08T12:21:31.937Z,1.92
2023-08-08T12:23:59.537Z,1.58
2023-08-08T12:26:28.835Z,2.00
2023-08-08T12:28:56.451Z,1.70
2023-08-08T12:31:24.346Z,1.63
2023-08-08T12:33:53.330Z,1.65
2023-08-08T12:36:22.266Z,1.77
2023-08-08T12:38:50.214Z,1.90
2023-08-08T12:41:17.926Z,1.75
2023-08-08T12:43:46.947Z,2.13
2023-08-08T12:46:14.605Z,1.50
2023-08-08T12:48:42.256Z,1.77
2023-08-08T12:51:09.850Z,1.80
2023-08-08T12:53:37.764Z,1.90
2023-08-08T12:56:05.596Z,1.52
2023-08-08T12:58:33.323Z,1.77
2023-08-08T13:01:02.335Z,1.63
2023-08-08T13:03:31.557Z,1.27
2023-08-08T13:05:59.230Z,2.13
2023-08-08T13:08:26.936Z,1.85
2023-08-08T13:10:54.577Z,1.15
2023-08-08T13:13:26.076Z,1.58
2023-08-08T13:15:53.778Z,1.50
2023-08-08T13:18:22.724Z,1.50
2023-08-08T13:20:50.734Z,1.20
2023-08-08T13:23:18.406Z,1.30
2023-08-08T13:25:46.520Z,1.38
2023-08-08T13:28:15.770Z,1.00
2023-08-08T13:30:44.268Z,0.93
2023-08-08T13:33:11.978Z,1.33
2023-08-08T13:35:40.936Z,1.13
2023-08-08T13:38:09.178Z,1.00
2023-08-08T13:40:36.958Z,1.10
2023-08-08T13:43:04.912Z,0.88
2023-08-08T13:45:32.583Z,0.77
2023-08-08T13:48:00.307Z,0.70
2023-08-08T13:50:28.611Z,0.85
2023-08-08T13:52:57.667Z,0.80
2023-08-08T13:55:26.748Z,0.80
2023-08-08T13:57:55.890Z,0.70
2023-08-08T14:00:23.504Z,0.85
2023-08-08T14:02:51.198Z,0.75
2023-08-08T14:05:18.872Z,0.93
2023-08-08T14:07:46.452Z,0.70
2023-08-08T14:10:15.682Z,0.70
2023-08-08T14:12:43.838Z,0.65
2023-08-08T14:15:11.671Z,0.60
2023-08-08T14:17:39.839Z,0.60
2023-08-08T14:20:09.033Z,0.65
2023-08-08T14:22:36.849Z,0.60
2023-08-08T14:25:05.143Z,1.23
2023-08-08T14:27:34.270Z,1.70
2023-08-08T14:30:02.080Z,1.27
2023-08-08T14:32:29.885Z,0.90
2023-08-08T14:34:59.855Z,0.82
2023-08-08T14:37:27.768Z,0.77
2023-08-08T14:39:55.571Z,0.77
2023-08-08T14:42:23.238Z,0.80
2023-08-08T14:44:52.632Z,0.90
2023-08-08T14:47:20.239Z,0.98
2023-08-08T14:49:48.200Z,0.95
2023-08-08T14:52:15.994Z,1.00
2023-08-08T14:54:43.630Z,0.80
2023-08-08T14:57:11.785Z,0.75
2023-08-08T14:59:39.414Z,0.70
2023-08-08T15:02:09.450Z,0.60
2023-08-08T15:04:37.064Z,0.73
2023-08-08T15:07:04.673Z,0.60
2023-08-08T15:09:32.471Z,0.88
2023-08-08T15:12:00.090Z,0.80
2023-08-08T15:14:28.157Z,0.70
2023-08-08T15:16:55.862Z,0.70
2023-08-08T15:19:25.084Z,0.70
2023-08-08T15:21:52.703Z,0.70
2023-08-08T15:24:20.296Z,0.93
2023-08-08T15:26:47.985Z,0.75
2023-08-08T15:29:15.655Z,0.80
2023-08-08T15:31:43.280Z,0.70
2023-08-08T15:34:10.993Z,0.70
2023-08-08T15:36:40.022Z,0.80
2023-08-08T15:39:07.821Z,0.57
2023-08-08T15:41:36.532Z,0.70
2023-08-08T15:44:04.316Z,0.63
2023-08-08T15:46:31.916Z,0.73
2023-08-08T15:48:59.639Z,0.80
2023-08-08T15:51:27.347Z,0.80
2023-08-08T15:53:56.446Z,0.50
2023-08-08T15:56:24.032Z,0.80
2023-08-08T15:58:51.704Z,0.80
2023-08-08T16:01:19.352Z,0.60
2023-08-08T16:03:47.342Z,0.85
2023-08-08T16:06:15.008Z,0.70
2023-08-08T16:08:42.763Z,0.57
2023-08-08T16:11:11.760Z,0.65
2023-08-08T16:13:39.590Z,0.90
2023-08-08T16:16:07.170Z,0.60
2023-08-08T16:18:34.801Z,0.70
2023-08-08T16:21:02.502Z,0.70
2023-08-08T16:23:30.182Z,0.68
2023-08-08T16:25:57.818Z,0.63
2023-08-08T16:28:27.216Z,0.50
2023-08-08T16:30:56.910Z,0.70
2023-08-08T16:33:24.567Z,0.70
2023-08-08T16:35:52.525Z,0.63
2023-08-08T16:38:20.103Z,0.82
2023-08-08T16:40:47.719Z,0.60
2023-08-08T16:43:15.360Z,0.45
2023-08-08T16:45:44.312Z,0.50
2023-08-08T16:48:11.956Z,0.70
2023-08-08T16:50:39.689Z,0.60
2023-08-08T16:53:07.702Z,0.65
2023-08-08T16:55:35.398Z,0.70
2023-08-08T16:58:04.239Z,1.00
2023-08-08T17:00:31.972Z,0.73
2023-08-08T17:03:01.174Z,0.57
2023-08-08T17:05:29.350Z,0.93
2023-08-08T17:07:57.024Z,0.63
2023-08-08T17:10:24.701Z,0.73
2023-08-08T17:12:52.351Z,0.55
2023-08-08T17:15:19.970Z,0.70
2023-08-08T17:17:47.709Z,0.70
2023-08-08T17:20:16.901Z,0.60
2023-08-08T17:22:44.530Z,0.60
2023-08-08T17:25:12.246Z,0.52
2023-08-08T17:27:40.058Z,0.50
2023-08-08T17:30:11.191Z,0.57
2023-08-08T17:32:39.041Z,0.70
2023-08-08T17:35:07.998Z,0.70
2023-08-08T17:37:37.110Z,0.50
2023-08-08T17:40:05.496Z,0.70
2023-08-08T17:42:33.295Z,0.80
2023-08-08T17:45:00.997Z,0.90
2023-08-08T17:47:28.717Z,0.98
2023-08-08T17:49:56.320Z,0.85
2023-08-08T17:52:23.907Z,0.70
2023-08-08T17:54:52.893Z,0.70
2023-08-08T17:57:20.730Z,0.93
2023-08-08T17:59:48.435Z,0.82
2023-08-08T18:02:16.172Z,0.90
2023-08-08T18:04:43.839Z,0.85
2023-08-08T18:07:11.524Z,1.00
2023-08-08T18:09:39.138Z,1.10
2023-08-08T18:12:08.662Z,0.82
2023-08-08T18:14:36.271Z,0.85
2023-08-08T18:17:04.067Z,0.80
2023-08-08T18:19:33.491Z,0.90
2023-08-08T18:22:02.513Z,1.02
2023-08-08T18:24:30.377Z,1.10
2023-08-08T18:26:58.305Z,1.00
2023-08-08T18:29:27.329Z,0.73
2023-08-08T18:31:56.142Z,0.90
2023-08-08T18:34:24.372Z,0.90
2023-08-08T18:36:51.947Z,0.82
2023-08-08T18:39:19.649Z,0.82
2023-08-08T18:41:47.217Z,0.80
2023-08-08T18:44:14.946Z,0.90
2023-08-08T18:46:46.482Z,0.80
2023-08-08T18:49:14.190Z,0.80
2023-08-08T18:51:41.771Z,0.80
2023-08-08T18:54:09.670Z,0.80
2023-08-08T18:56:37.479Z,1.15
2023-08-08T18:59:05.797Z,0.80
2023-08-08T19:01:33.528Z,0.93
2023-08-08T19:04:02.611Z,0.70
2023-08-08T19:06:30.297Z,1.02
2023-08-08T19:08:58.336Z,0.70
2023-08-08T19:11:25.949Z,0.82
2023-08-08T19:13:53.666Z,0.77
2023-08-08T19:16:21.367Z,0.77
2023-08-08T19:18:48.991Z,1.00
2023-08-08T19:21:18.028Z,0.95
2023-08-08T19:23:45.648Z,0.80
2023-08-08T19:26:13.577Z,0.88
2023-08-08T19:28:41.255Z,1.00
2023-08-08T19:31:09.207Z,1.20
2023-08-08T19:33:37.405Z,0.95
2023-08-08T19:36:08.424Z,0.98
2023-08-08T19:38:37.793Z,1.35
2023-08-08T19:41:05.600Z,0.93
2023-08-08T19:43:33.268Z,1.10
2023-08-08T19:46:01.256Z,1.15
2023-08-08T19:48:28.981Z,1.25
2023-08-08T19:50:56.667Z,1.35
2023-08-08T19:53:24.285Z,1.00
2023-08-08T19:55:53.792Z,0.90
2023-08-08T19:58:22.144Z,1.27
2023-08-08T20:00:49.748Z,0.98
2023-08-08T20:03:17.541Z,0.98
2023-08-08T20:05:45.293Z,1.10
2023-08-08T20:08:12.910Z,1.10
2023-08-08T20:10:40.539Z,1.00
2023-08-08T20:13:11.456Z,1.20
2023-08-08T20:15:39.212Z,1.30
2023-08-08T20:18:07.292Z,1.10
2023-08-08T20:20:34.942Z,1.13
2023-08-08T20:23:02.613Z,1.15
2023-08-08T20:25:30.220Z,1.10
2023-08-08T20:27:57.894Z,1.10
2023-08-08T20:30:26.938Z,1.15
2023-08-08T20:32:54.626Z,0.90
2023-08-08T20:35:23.084Z,1.10
2023-08-08T20:37:50.717Z,1.25
2023-08-08T20:40:18.376Z,0.85
2023-08-08T20:42:46.089Z,1.15
2023-08-08T20:45:14.644Z,1.00
2023-08-08T20:47:43.744Z,1.13
2023-08-08T20:50:11.797Z,1.25
2023-08-08T20:52:39.415Z,1.15
2023-08-08T20:55:08.073Z,1.20
2023-08-08T20:57:35.678Z,1.30
2023-08-08T21:00:03.527Z,1.50
2023-08-08T21:02:31.159Z,1.50
2023-08-08T21:05:00.190Z,1.27
2023-08-08T21:07:27.896Z,1.60
2023-08-08T21:09:55.536Z,2.08
2023-08-08T21:12:23.162Z,1.50
2023-08-08T21:14:50.773Z,1.25
2023-08-08T21:17:18.424Z,1.30
2023-08-08T21:19:46.013Z,1.25
2023-08-08T21:22:14.947Z,1.50
2023-08-08T21:24:42.538Z,1.20
2023-08-08T21:27:10.131Z,1.17
2023-08-08T21:29:37.767Z,1.40
2023-08-08T21:32:05.712Z,1.30
2023-08-08T21:34:33.490Z,1.30
2023-08-08T21:37:01.663Z,1.40
2023-08-08T21:39:30.744Z,1.30
2023-08-08T21:41:58.373Z,1.58
2023-08-08T21:44:26.559Z,1.20
2023-08-08T21:46:54.722Z,1.40
2023-08-08T21:49:23.172Z,1.45
2023-08-08T21:51:51.318Z,1.33
2023-08-08T21:54:19.223Z,1.35
2023-08-08T21:56:48.453Z,1.58
2023-08-08T21:59:16.224Z,1.10
2023-08-08T22:01:43.899Z,1.42
2023-08-08T22:04:11.748Z,1.50
2023-08-08T22:06:39.493Z,3.83
2023-08-08T22:09:07.486Z,1.40
2023-08-08T22:11:35.235Z,1.50
2023-08-08T22:14:04.472Z,1.40
2023-08-08T22:16:33.007Z,1.40
2023-08-08T22:19:00.660Z,1.42
2023-08-08T22:21:28.543Z,1.23
2023-08-08T22:23:56.150Z,1.35
2023-08-08T22:26:23.752Z,1.38
2023-08-08T22:28:51.398Z,1.20
2023-08-08T22:31:20.435Z,1.70
2023-08-08T22:33:48.090Z,1.40
2023-08-08T22:36:15.716Z,1.30
2023-08-08T22:38:43.343Z,1.17
2023-08-08T22:41:11.136Z,0.82
2023-08-08T22:43:38.963Z,1.40
2023-08-08T22:46:06.748Z,1.10
2023-08-08T22:48:35.754Z,1.17
2023-08-08T22:51:03.334Z,1.20
2023-08-08T22:53:30.950Z,1.42
2023-08-08T22:55:59.244Z,1.20
2023-08-08T22:58:26.914Z,1.20
2023-08-08T23:00:54.568Z,1.40
2023-08-08T23:03:22.385Z,1.55
2023-08-08T23:05:51.399Z,1.77
2023-08-08T23:08:26.803Z,1.42
2023-08-08T23:10:54.535Z,1.52
2023-08-08T23:13:22.237Z,1.80
2023-08-08T23:15:50.824Z,1.48
2023-08-08T23:18:19.852Z,1.80
2023-08-08T23:20:48.938Z,1.50
2023-08-08T23:23:18.085Z,1.67
2023-08-08T23:25:46.499Z,1.80
2023-08-08T23:28:18.116Z,1.48
2023-08-08T23:30:46.296Z,1.50
2023-08-08T23:33:14.148Z,1.55
2023-08-08T23:35:41.778Z,1.30
2023-08-08T23:38:09.374Z,1.25
2023-08-08T23:40:38.359Z,1.38
2023-08-08T23:43:05.961Z,1.70
2023-08-08T23:45:33.637Z,1.60
2023-08-08T23:48:02.465Z,1.50
2023-08-08T23:50:30.230Z,1.40
2023-08-08T23:52:57.813Z,1.60
2023-08-08T23:55:25.708Z,1.60
2023-08-08T23:57:54.733Z,1.52
